Time;durP1;ratioP1;P1;durP2;ratioP2;P2;SDS_P1;SDS_P2;PMS_P1;PMS_P2;Temp;Humidity;BMP_temperature;BMP_pressure;BME280_temperature;BME280_humidity;BME280_pressure;Samples;Min_cycle;Max_cycle;Signal;HPM_P1;HPM_P2
2023/12/10 00:01:03;;;;;;;10.80;8.00;;;;;;;22.16;30.26;101123.17;103186;1295;62084;-82
2023/12/10 00:03:29;;;;;;;10.10;7.80;;;;;;;22.16;30.22;101122.45;103092;1296;61335;-82
2023/12/10 00:05:55;;;;;;;10.80;8.30;;;;;;;22.15;30.17;101125.17;103194;1296;61337;-82
2023/12/10 00:08:20;;;;;;;10.30;8.20;;;;;;;22.16;30.27;101129.98;103215;1296;61673;-82
2023/12/10 00:10:46;;;;;;;11.00;8.20;;;;;;;22.16;30.10;101131.05;103399;1298;72470;-82
2023/12/10 00:13:12;;;;;;;10.20;7.80;;;;;;;22.16;30.14;101126.91;103243;1298;61409;-82
2023/12/10 00:15:37;;;;;;;9.80;7.80;;;;;;;22.16;30.13;101126.92;103179;1297;61394;-82
2023/12/10 00:18:04;;;;;;;10.20;8.00;;;;;;;22.16;30.19;101128.49;103198;1299;61370;-82
2023/12/10 00:20:30;;;;;;;10.70;8.30;;;;;;;22.16;30.13;101131.02;103050;1296;62774;-82
2023/12/10 00:22:55;;;;;;;10.10;8.00;;;;;;;22.16;30.20;101129.42;103090;1296;62057;-82
2023/12/10 00:25:21;;;;;;;11.50;8.30;;;;;;;22.16;30.21;101130.13;103284;1298;61332;-82
2023/12/10 00:27:47;;;;;;;10.40;8.00;;;;;;;22.16;30.16;101126.05;103271;1295;61416;-82
2023/12/10 00:30:13;;;;;;;10.20;8.00;;;;;;;22.16;30.12;101129.74;103329;1298;61503;-82
2023/12/10 00:32:39;;;;;;;10.10;8.10;;;;;;;22.16;30.18;101124.91;103116;1298;61313;-82
2023/12/10 00:35:06;;;;;;;10.50;7.70;;;;;;;22.16;30.06;101125.12;103192;1296;61317;-82
2023/12/10 00:37:32;;;;;;;11.30;7.80;;;;;;;22.17;29.99;101119.53;103248;1296;61413;-82
2023/12/10 00:39:59;;;;;;;10.70;7.90;;;;;;;22.17;30.08;101121.85;103107;1296;61324;-82
2023/12/10 00:42:25;;;;;;;11.60;8.00;;;;;;;22.16;30.09;101124.02;103074;1298;61364;-82
2023/12/10 00:44:51;;;;;;;10.50;8.30;;;;;;;22.16;30.11;101122.59;103174;1295;61326;-82
2023/12/10 00:47:16;;;;;;;10.20;7.70;;;;;;;22.16;30.14;101124.20;103260;1294;61404;-83
2023/12/10 00:49:43;;;;;;;10.80;8.00;;;;;;;22.16;30.21;101120.42;103275;1296;61406;-82
2023/12/10 00:52:08;;;;;;;9.30;7.00;;;;;;;22.17;30.02;101119.33;103077;1298;61407;-82
2023/12/10 00:54:34;;;;;;;11.10;8.30;;;;;;;22.16;30.12;101116.84;103281;1296;62094;-82
2023/12/10 00:57:00;;;;;;;10.70;7.80;;;;;;;22.17;30.08;101111.05;103189;1298;74537;-83
2023/12/10 00:59:26;;;;;;;10.10;7.20;;;;;;;22.17;30.17;101102.47;103213;1296;61748;-82
2023/12/10 01:01:52;;;;;;;9.60;7.30;;;;;;;22.16;30.12;101088.34;103209;1295;61400;-82
2023/12/10 01:04:18;;;;;;;9.40;7.50;;;;;;;22.17;30.12;101079.70;103302;1297;61476;-83
2023/12/10 01:06:43;;;;;;;9.60;7.20;;;;;;;22.17;30.16;101073.05;103182;1298;61315;-82
2023/12/10 01:09:09;;;;;;;10.50;8.30;;;;;;;22.17;30.04;101076.48;103157;1298;61412;-81
2023/12/10 01:11:35;;;;;;;11.20;7.80;;;;;;;22.17;30.10;101080.25;103220;1296;61360;-81
2023/12/10 01:14:02;;;;;;;9.70;7.60;;;;;;;22.17;30.17;101078.08;103258;1295;62109;-81
2023/12/10 01:16:29;;;;;;;10.10;7.60;;;;;;;22.16;30.07;101067.90;103278;1296;72500;-82
2023/12/10 01:18:55;;;;;;;9.00;6.90;;;;;;;22.17;30.16;101063.56;103317;1295;61406;-82
2023/12/10 01:21:21;;;;;;;10.40;7.80;;;;;;;22.17;30.11;101057.46;103099;1295;61461;-81
2023/12/10 01:23:50;;;;;;;10.40;7.50;;;;;;;22.17;30.06;101050.65;103120;1296;61349;-81
2023/12/10 01:26:23;;;;;;;9.60;7.30;;;;;;;22.17;30.15;101046.91;103421;1298;72540;-81
2023/12/10 01:28:49;;;;;;;10.30;7.90;;;;;;;22.18;30.13;101051.52;103386;1296;74670;-81
2023/12/10 01:31:14;;;;;;;9.60;7.10;;;;;;;22.18;30.22;101054.00;103173;1298;61328;-82
2023/12/10 01:33:41;;;;;;;9.90;7.70;;;;;;;22.18;30.16;101051.69;103254;1298;61886;-82
2023/12/10 01:36:06;;;;;;;10.60;7.50;;;;;;;22.18;30.16;101051.85;103106;1296;61372;-82
2023/12/10 01:38:33;;;;;;;10.00;7.60;;;;;;;22.18;30.01;101048.42;103229;1297;62221;-82
2023/12/10 01:40:58;;;;;;;10.40;7.70;;;;;;;22.18;30.09;101045.90;103144;1298;61381;-81
2023/12/10 01:43:24;;;;;;;9.70;7.50;;;;;;;22.18;30.08;101046.60;103156;1298;61506;-81
2023/12/10 01:45:54;;;;;;;10.50;7.80;;;;;;;22.18;30.10;101050.02;103285;1296;61422;-81
2023/12/10 01:48:23;;;;;;;10.50;7.50;;;;;;;22.18;30.13;101051.09;103258;1295;72320;-81
2023/12/10 01:50:55;;;;;;;10.60;7.70;;;;;;;22.19;29.98;101044.60;103045;1294;74386;-82
2023/12/10 01:53:22;;;;;;;9.80;7.60;;;;;;;22.18;30.02;101040.52;103113;1298;61415;-81
2023/12/10 01:55:48;;;;;;;10.50;8.10;;;;;;;22.18;30.10;101039.25;103041;1294;61659;-81
2023/12/10 01:58:14;;;;;;;10.10;7.10;;;;;;;22.18;30.12;101037.65;103226;1294;61426;-81
2023/12/10 02:00:39;;;;;;;10.30;7.40;;;;;;;22.18;30.12;101034.79;103013;1298;61399;-81
2023/12/10 02:03:05;;;;;;;9.40;7.30;;;;;;;22.19;30.12;101036.52;103324;1296;61329;-81
2023/12/10 02:05:32;;;;;;;10.40;7.50;;;;;;;22.19;30.17;101034.18;103005;1296;61820;-81
2023/12/10 02:07:57;;;;;;;9.20;7.10;;;;;;;22.19;30.05;101033.80;103228;1298;61339;-83
2023/12/10 02:10:23;;;;;;;9.70;7.70;;;;;;;22.19;30.07;101034.02;103247;1295;61406;-81
2023/12/10 02:12:52;;;;;;;9.50;7.10;;;;;;;22.19;30.06;101024.85;103185;1295;74495;-81
2023/12/10 02:15:18;;;;;;;8.10;6.70;;;;;;;22.19;29.91;101023.26;103279;1297;61682;-81
2023/12/10 02:17:45;;;;;;;8.90;6.90;;;;;;;22.19;29.99;101024.85;102970;1296;62455;-82
2023/12/10 02:20:13;;;;;;;9.90;6.90;;;;;;;22.19;29.88;101020.94;103190;1296;61330;-81
2023/12/10 02:25:50;;;;;;;11.20;8.00;;;;;;;22.19;29.94;101019.52;103669;1293;61421;-82
2023/12/10 02:28:22;;;;;;;11.10;7.60;;;;;;;22.18;30.04;101013.09;103393;1293;61378;-81
2023/12/10 02:30:47;;;;;;;9.10;7.30;;;;;;;22.19;30.13;101012.16;103462;1292;72291;-83
2023/12/10 02:33:13;;;;;;;9.90;7.20;;;;;;;22.19;30.10;101009.28;103460;1296;61465;-81
2023/12/10 02:35:39;;;;;;;9.30;6.90;;;;;;;22.18;30.08;101008.59;103458;1296;61424;-81
2023/12/10 02:38:04;;;;;;;10.50;7.90;;;;;;;22.19;29.97;101008.72;103380;1294;61357;-81
2023/12/10 02:40:38;;;;;;;10.00;7.20;;;;;;;22.19;30.05;101001.91;103458;1296;73002;-81
2023/12/10 02:43:03;;;;;;;10.20;7.50;;;;;;;22.19;30.07;101005.69;103623;1296;61423;-81
2023/12/10 02:45:30;;;;;;;9.80;7.30;;;;;;;22.20;29.86;101003.48;103522;1296;61381;-82
2023/12/10 02:47:57;;;;;;;9.30;6.90;;;;;;;22.20;29.97;101000.06;103530;1297;61491;-82
2023/12/10 02:50:23;;;;;;;10.10;7.10;;;;;;;22.20;30.00;101006.86;103521;1296;61418;-82
2023/12/10 02:52:48;;;;;;;10.60;7.50;;;;;;;22.20;29.93;101016.92;103277;1299;61777;-81
2023/12/10 02:55:14;;;;;;;10.30;7.20;;;;;;;22.20;30.07;101016.32;103408;1297;61318;-81
2023/12/10 02:57:40;;;;;;;8.80;6.90;;;;;;;22.20;30.05;101012.80;103562;1298;61315;-81
2023/12/10 03:00:08;;;;;;;8.90;7.10;;;;;;;22.20;30.03;101013.13;103470;1293;61338;-81
2023/12/10 03:02:35;;;;;;;8.70;7.10;;;;;;;22.21;30.07;101012.17;103399;1292;72532;-82
2023/12/10 03:05:00;;;;;;;9.70;7.30;;;;;;;22.21;29.89;101012.73;103433;1293;61427;-82
2023/12/10 03:07:26;;;;;;;10.10;7.50;;;;;;;22.21;29.93;101018.09;103467;1294;61856;-82
2023/12/10 03:09:52;;;;;;;9.80;7.00;;;;;;;22.20;30.01;101013.66;103370;1297;61403;-82
2023/12/10 03:12:17;;;;;;;11.00;7.20;;;;;;;22.21;30.03;101008.60;103459;1296;61791;-81
2023/12/10 03:14:43;;;;;;;11.30;7.50;;;;;;;22.21;29.95;101009.84;103561;1293;61735;-81
2023/12/10 03:17:09;;;;;;;9.90;7.30;;;;;;;22.21;29.95;101007.11;103532;1294;61445;-81
2023/12/10 03:19:36;;;;;;;9.30;7.00;;;;;;;22.21;30.01;101005.39;103469;1296;61345;-81
2023/12/10 03:22:08;;;;;;;9.50;7.20;;;;;;;22.22;29.98;101004.07;103424;1293;61682;-81
2023/12/10 03:24:34;;;;;;;8.60;6.80;;;;;;;22.21;30.10;100995.86;103464;1294;61297;-82
2023/12/10 03:26:59;;;;;;;10.60;7.50;;;;;;;22.21;29.95;100988.66;103665;1297;62308;-81
2023/12/10 03:29:25;;;;;;;9.50;7.50;;;;;;;22.22;29.92;100993.30;103275;1294;61262;-82
2023/12/10 03:31:50;;;;;;;9.90;7.10;;;;;;;22.21;29.99;100997.29;103537;1293;61420;-81
2023/12/10 03:34:16;;;;;;;9.50;6.90;;;;;;;22.21;29.99;100999.42;103512;1297;62529;-81
2023/12/10 03:36:42;;;;;;;9.40;7.20;;;;;;;22.21;30.01;101000.32;103471;1297;72604;-81
2023/12/10 03:39:08;;;;;;;9.30;7.10;;;;;;;22.21;30.04;101001.03;103512;1297;61421;-82
2023/12/10 03:41:33;;;;;;;10.20;7.40;;;;;;;22.21;29.98;101000.69;103409;1294;61705;-81
2023/12/10 03:43:59;;;;;;;9.00;6.90;;;;;;;22.22;29.82;100997.77;103175;1294;61410;-81
2023/12/10 03:46:25;;;;;;;10.40;7.30;;;;;;;22.22;30.06;101001.89;103410;1296;61350;-82
2023/12/10 03:48:51;;;;;;;9.90;7.20;;;;;;;22.21;30.03;101003.36;103462;1299;61421;-81
2023/12/10 03:51:17;;;;;;;9.50;7.20;;;;;;;22.22;30.00;101003.52;103564;1295;74879;-82
2023/12/10 03:53:43;;;;;;;9.90;7.10;;;;;;;22.22;29.88;101005.49;103400;1294;61339;-81
2023/12/10 03:56:10;;;;;;;10.10;7.30;;;;;;;22.21;29.93;101006.95;103563;1292;61888;-82
2023/12/10 03:58:36;;;;;;;9.60;7.40;;;;;;;22.22;30.10;101007.47;103701;1294;61423;-82
2023/12/10 04:01:02;;;;;;;9.60;7.30;;;;;;;22.22;30.01;101005.83;103413;1297;61397;-81
2023/12/10 04:03:28;;;;;;;10.20;7.10;;;;;;;22.22;29.97;101003.13;103192;1298;61412;-82
2023/12/10 04:05:53;;;;;;;9.30;7.10;;;;;;;22.22;30.00;101001.70;103489;1292;61372;-81
2023/12/10 04:08:19;;;;;;;9.10;6.90;;;;;;;22.22;29.97;101001.69;103609;1296;61303;-81
2023/12/10 04:10:47;;;;;;;9.20;6.80;;;;;;;22.22;30.01;100998.27;103560;1298;59431;-81
2023/12/10 04:13:13;;;;;;;9.30;6.90;;;;;;;22.22;29.90;101004.89;103064;1299;74365;-81
2023/12/10 04:15:39;;;;;;;11.50;7.80;;;;;;;22.22;29.81;101011.70;103129;1303;61380;-81
2023/12/10 04:18:05;;;;;;;9.40;7.10;;;;;;;22.22;29.86;101011.89;103067;1297;61502;-83
2023/12/10 04:20:30;;;;;;;8.80;7.00;;;;;;;22.23;30.05;101009.54;102987;1301;61479;-82
2023/12/10 04:22:56;;;;;;;8.90;6.90;;;;;;;22.23;29.90;101009.35;103023;1299;61878;-81
2023/12/10 04:25:22;;;;;;;9.80;7.10;;;;;;;22.23;29.78;101009.52;103143;1297;61268;-81
2023/12/10 04:27:48;;;;;;;9.10;6.80;;;;;;;22.23;29.83;101009.52;103070;1297;61399;-82
2023/12/10 04:30:14;;;;;;;10.20;7.10;;;;;;;22.23;29.91;101007.02;103156;1296;62537;-81
2023/12/10 04:32:40;;;;;;;8.90;7.40;;;;;;;22.22;29.86;101007.05;103151;1296;61316;-81
2023/12/10 04:35:06;;;;;;;10.30;7.30;;;;;;;22.22;29.95;101010.27;103037;1300;61556;-81
2023/12/10 04:37:32;;;;;;;8.50;6.70;;;;;;;22.23;29.81;101006.83;103152;1297;61420;-81
2023/12/10 04:39:57;;;;;;;9.40;7.30;;;;;;;22.23;29.85;101010.42;103178;1299;61437;-81
2023/12/10 04:42:23;;;;;;;9.30;7.10;;;;;;;22.23;29.93;101013.83;103011;1299;61422;-81
2023/12/10 04:44:49;;;;;;;10.00;7.30;;;;;;;22.22;29.86;101013.50;103261;1299;61341;-81
2023/12/10 04:47:14;;;;;;;9.70;7.10;;;;;;;22.22;29.93;101010.45;103435;1295;74489;-82
2023/12/10 04:49:41;;;;;;;9.00;7.10;;;;;;;22.23;29.81;101010.96;103510;1297;61407;-82
2023/12/10 04:52:07;;;;;;;9.20;6.70;;;;;;;22.22;29.93;101008.30;103487;1293;61363;-81
2023/12/10 04:54:32;;;;;;;8.30;6.50;;;;;;;22.22;29.89;101009.02;103418;1293;61171;-81
2023/12/10 04:56:58;;;;;;;9.50;7.50;;;;;;;22.23;29.86;101012.77;103181;1297;63071;-81
2023/12/10 04:59:24;;;;;;;10.50;7.00;;;;;;;22.22;29.83;101010.98;103613;1294;61743;-82
2023/12/10 05:01:49;;;;;;;10.90;7.30;;;;;;;22.23;29.90;101015.45;103483;1293;61843;-82
2023/12/10 05:04:15;;;;;;;9.30;6.60;;;;;;;22.23;29.95;101015.10;103107;1299;61397;-81
2023/12/10 05:06:41;;;;;;;9.00;6.80;;;;;;;22.23;29.86;101017.77;103473;1294;61479;-81
2023/12/10 05:09:09;;;;;;;9.60;7.00;;;;;;;22.23;29.70;101015.23;103420;1294;61403;-81
2023/12/10 05:11:35;;;;;;;8.40;6.40;;;;;;;22.24;29.93;101015.74;103501;1294;61274;-81
2023/12/10 05:14:01;;;;;;;9.60;6.80;;;;;;;22.23;29.91;101014.69;103514;1294;61400;-82
2023/12/10 05:16:27;;;;;;;8.60;7.00;;;;;;;22.24;30.07;101015.91;103582;1296;61367;-81
2023/12/10 05:18:52;;;;;;;9.30;6.80;;;;;;;22.23;29.90;101026.52;103454;1293;61396;-81
2023/12/10 05:21:18;;;;;;;10.40;7.20;;;;;;;22.24;29.81;101031.31;103467;1293;61260;-81
2023/12/10 05:23:44;;;;;;;9.00;7.20;;;;;;;22.23;29.91;101031.34;103581;1294;61462;-81
2023/12/10 05:26:10;;;;;;;10.50;6.80;;;;;;;22.24;29.92;101029.36;103377;1294;61349;-81
2023/12/10 05:28:35;;;;;;;8.60;7.10;;;;;;;22.24;29.98;101025.73;103495;1293;61484;-81
2023/12/10 05:31:01;;;;;;;9.10;7.20;;;;;;;22.24;29.91;101026.50;103587;1297;61470;-81
2023/12/10 05:33:27;;;;;;;10.30;7.20;;;;;;;22.24;29.88;101032.36;103451;1292;61569;-81
2023/12/10 05:35:52;;;;;;;9.20;6.40;;;;;;;22.24;29.78;101030.58;103452;1294;61903;-81
2023/12/10 05:38:18;;;;;;;9.30;7.20;;;;;;;22.25;29.92;101027.13;103478;1293;61395;-81
2023/12/10 05:40:44;;;;;;;10.70;7.20;;;;;;;22.24;29.84;101033.95;103412;1292;72317;-81
2023/12/10 05:43:09;;;;;;;9.20;7.10;;;;;;;22.24;29.76;101035.23;103681;1294;61401;-81
2023/12/10 05:45:35;;;;;;;9.90;7.40;;;;;;;22.25;29.86;101035.37;103444;1293;61924;-82
2023/12/10 05:48:01;;;;;;;10.00;7.60;;;;;;;22.24;29.87;101032.88;103412;1294;61315;-82
2023/12/10 05:50:26;;;;;;;9.20;6.80;;;;;;;22.24;29.91;101032.55;103486;1292;61367;-81
2023/12/10 05:52:52;;;;;;;9.40;7.00;;;;;;;22.24;29.85;101027.18;103501;1292;61364;-81
2023/12/10 05:55:18;;;;;;;9.50;7.20;;;;;;;22.24;29.87;101029.88;103444;1296;61287;-81
2023/12/10 05:57:44;;;;;;;8.50;6.70;;;;;;;22.24;29.75;101028.97;103757;1297;61447;-81
2023/12/10 06:00:10;;;;;;;9.00;7.10;;;;;;;22.24;29.73;101026.09;103488;1294;62257;-82
2023/12/10 06:02:36;;;;;;;8.70;6.50;;;;;;;22.24;29.85;101025.01;103473;1292;61396;-81
2023/12/10 06:05:02;;;;;;;10.20;6.80;;;;;;;22.24;29.95;101021.61;103180;1299;61438;-81
2023/12/10 06:07:27;;;;;;;8.80;6.70;;;;;;;22.25;29.86;101016.76;103460;1294;61404;-81
2023/12/10 06:09:53;;;;;;;9.20;6.90;;;;;;;22.24;29.76;101013.35;103585;1294;61294;-81
2023/12/10 06:12:19;;;;;;;9.10;6.90;;;;;;;22.25;30.00;101017.99;103517;1293;61319;-82
2023/12/10 06:14:44;;;;;;;9.00;7.20;;;;;;;22.24;29.84;101018.02;103394;1298;61491;-81
2023/12/10 06:17:10;;;;;;;8.80;6.60;;;;;;;22.24;29.86;101019.27;103171;1292;61441;-81
2023/12/10 06:19:36;;;;;;;8.30;6.80;;;;;;;22.24;29.69;101017.84;103553;1294;61384;-82
2023/12/10 06:22:03;;;;;;;9.70;7.20;;;;;;;22.25;29.83;101016.73;103674;1296;61350;-81
2023/12/10 06:24:28;;;;;;;9.50;7.00;;;;;;;22.25;29.74;101015.50;103510;1294;61502;-81
2023/12/10 06:26:54;;;;;;;10.00;7.20;;;;;;;22.25;29.75;101017.45;103454;1292;61393;-81
2023/12/10 06:29:20;;;;;;;9.90;7.30;;;;;;;22.25;29.77;101009.91;103358;1294;74482;-82
2023/12/10 06:31:46;;;;;;;9.80;7.40;;;;;;;22.25;29.77;101014.72;103342;1294;61374;-81
2023/12/10 06:34:11;;;;;;;8.60;6.60;;;;;;;22.25;29.88;101016.36;103421;1294;61425;-81
2023/12/10 06:36:37;;;;;;;9.00;6.90;;;;;;;22.25;29.92;101016.69;103470;1294;61412;-82
2023/12/10 06:39:06;;;;;;;9.30;7.00;;;;;;;22.25;29.90;101013.66;103608;1292;61375;-81
2023/12/10 06:41:38;;;;;;;9.60;7.00;;;;;;;22.25;29.77;101005.23;103507;1293;61193;-81
2023/12/10 06:44:04;;;;;;;9.00;6.90;;;;;;;22.25;29.83;101000.94;103453;1292;61307;-81
2023/12/10 06:46:30;;;;;;;9.10;6.90;;;;;;;22.25;29.72;101002.33;103263;1299;71156;-81
2023/12/10 06:48:56;;;;;;;8.80;6.70;;;;;;;22.25;29.83;101008.45;103509;1298;61335;-82
2023/12/10 06:51:21;;;;;;;9.90;7.20;;;;;;;22.26;29.77;101009.67;103609;1293;62582;-82
2023/12/10 06:53:47;;;;;;;9.40;7.00;;;;;;;22.26;29.81;101011.45;103501;1293;61166;-82
2023/12/10 06:56:13;;;;;;;9.00;6.90;;;;;;;22.26;29.64;101015.93;103550;1294;61390;-82
2023/12/10 06:58:39;;;;;;;9.00;7.10;;;;;;;22.27;29.90;101014.63;103485;1294;61358;-82
2023/12/10 07:01:05;;;;;;;9.60;7.00;;;;;;;22.26;29.74;101014.83;103491;1294;61410;-81
2023/12/10 07:03:30;;;;;;;9.50;7.00;;;;;;;22.27;29.87;101011.92;103421;1293;61444;-82
2023/12/10 07:05:56;;;;;;;9.10;6.70;;;;;;;22.27;29.85;101015.67;103548;1293;61372;-82
2023/12/10 07:08:22;;;;;;;8.80;7.10;;;;;;;22.26;29.69;101016.41;103509;1296;61300;-83
2023/12/10 07:10:47;;;;;;;8.40;6.40;;;;;;;22.27;29.64;101012.12;103375;1298;62092;-82
2023/12/10 07:13:13;;;;;;;9.90;7.20;;;;;;;22.27;29.67;101015.13;103476;1293;61791;-82
2023/12/10 07:15:42;;;;;;;9.00;7.00;;;;;;;22.27;29.82;101018.01;103239;1294;61321;-82
2023/12/10 07:18:08;;;;;;;9.90;7.10;;;;;;;22.27;29.65;101015.88;103476;1293;61315;-82
2023/12/10 07:20:33;;;;;;;8.80;6.80;;;;;;;22.27;29.71;101020.86;103374;1294;61486;-82
2023/12/10 07:22:59;;;;;;;9.50;7.00;;;;;;;22.27;29.65;101023.55;103402;1294;61314;-82
2023/12/10 07:25:25;;;;;;;8.70;6.60;;;;;;;22.27;29.58;101031.45;103585;1293;61817;-83
2023/12/10 07:27:51;;;;;;;9.90;7.20;;;;;;;22.27;29.77;101031.64;103537;1294;61480;-81
2023/12/10 07:30:16;;;;;;;9.50;6.90;;;;;;;22.27;29.67;101038.42;103479;1293;61815;-82
2023/12/10 07:32:42;;;;;;;10.90;7.10;;;;;;;22.27;29.73;101042.75;103505;1294;71458;-81
2023/12/10 07:35:08;;;;;;;10.20;7.10;;;;;;;22.27;29.76;101046.86;103379;1294;61427;-81
2023/12/10 07:37:34;;;;;;;9.50;7.00;;;;;;;22.27;29.73;101045.26;103225;1294;307399;-82
2023/12/10 07:40:00;;;;;;;9.90;7.00;;;;;;;22.27;29.66;101046.69;103486;1293;61801;-81
2023/12/10 07:42:25;;;;;;;9.40;6.70;;;;;;;22.27;29.65;101046.49;103395;1294;61764;-81
2023/12/10 07:44:51;;;;;;;8.30;6.60;;;;;;;22.27;29.56;101045.42;103642;1298;61347;-81
2023/12/10 07:47:17;;;;;;;8.80;6.90;;;;;;;22.27;29.74;101047.05;103203;1294;74507;-81
2023/12/10 07:49:42;;;;;;;9.30;6.90;;;;;;;22.27;29.65;101052.41;103225;1298;61341;-81
2023/12/10 07:52:08;;;;;;;9.70;6.80;;;;;;;22.28;29.68;101061.34;103452;1294;61420;-81
2023/12/10 07:54:34;;;;;;;9.00;6.40;;;;;;;22.27;29.70;101063.52;103710;1294;61279;-82
2023/12/10 07:56:59;;;;;;;10.10;7.10;;;;;;;22.27;29.75;101063.35;103239;1299;61447;-82
2023/12/10 07:59:25;;;;;;;9.20;6.80;;;;;;;22.27;29.63;101058.88;103284;1294;61468;-80
2023/12/10 08:01:51;;;;;;;10.30;7.10;;;;;;;22.27;29.62;101058.48;103475;1294;61419;-82
2023/12/10 08:04:16;;;;;;;9.40;7.00;;;;;;;22.28;29.66;101063.69;103557;1296;61409;-81
2023/12/10 08:06:42;;;;;;;9.30;6.70;;;;;;;22.27;29.69;101066.19;103551;1293;61854;-81
2023/12/10 08:09:08;;;;;;;8.70;6.60;;;;;;;22.28;29.76;101070.67;103422;1292;61959;-81
2023/12/10 08:11:35;;;;;;;8.80;6.70;;;;;;;22.27;29.55;101067.85;103409;1293;61398;-81
2023/12/10 08:14:01;;;;;;;8.40;6.50;;;;;;;22.28;29.74;101065.13;103513;1294;61296;-82
2023/12/10 08:16:27;;;;;;;8.90;6.70;;;;;;;22.28;29.67;101071.55;103677;1293;61390;-82
2023/12/10 08:18:53;;;;;;;8.70;6.70;;;;;;;22.27;29.73;101075.88;103508;1294;61418;-81
2023/12/10 08:21:18;;;;;;;7.50;6.60;;;;;;;22.28;29.82;101081.21;103429;1294;61376;-81
2023/12/10 08:23:44;;;;;;;9.30;7.00;;;;;;;22.29;29.65;101082.98;103480;1294;61410;-82
2023/12/10 08:26:10;;;;;;;8.30;6.50;;;;;;;22.29;29.65;101081.02;103776;1292;61396;-82
2023/12/10 08:28:36;;;;;;;9.00;6.90;;;;;;;22.28;29.67;101084.80;103517;1292;61509;-81
2023/12/10 08:31:01;;;;;;;9.00;7.10;;;;;;;22.28;29.72;101086.43;103465;1293;61367;-81
2023/12/10 08:33:27;;;;;;;10.70;7.20;;;;;;;22.29;29.73;101086.20;103606;1293;61333;-81
2023/12/10 08:35:53;;;;;;;8.70;6.80;;;;;;;22.29;29.73;101081.39;103477;1297;61480;-81
2023/12/10 08:38:18;;;;;;;9.50;6.70;;;;;;;22.28;29.62;101079.07;103422;1293;61392;-80
2023/12/10 08:40:44;;;;;;;8.70;7.00;;;;;;;22.28;29.71;101075.64;103266;1293;61407;-81
2023/12/10 08:43:10;;;;;;;7.80;6.50;;;;;;;22.28;29.69;101073.32;103168;1297;61383;-83
2023/12/10 08:45:35;;;;;;;9.20;6.90;;;;;;;22.29;29.77;101075.06;103490;1293;61400;-81
2023/12/10 08:48:01;;;;;;;10.00;7.20;;;;;;;22.28;29.60;101071.88;103397;1292;61443;-81
2023/12/10 08:50:27;;;;;;;9.40;7.30;;;;;;;22.28;29.58;101068.31;103454;1294;61426;-81
2023/12/10 08:52:53;;;;;;;10.50;6.90;;;;;;;22.28;29.60;101069.92;103432;1296;72337;-82
2023/12/10 08:55:19;;;;;;;9.70;7.30;;;;;;;22.28;29.62;101061.88;103290;1294;61427;-81
2023/12/10 08:57:44;;;;;;;9.00;7.00;;;;;;;22.28;29.56;101063.66;103133;1297;61553;-81
2023/12/10 09:00:11;;;;;;;9.90;7.30;;;;;;;22.28;29.54;101064.91;103059;1296;61422;-81
2023/12/10 09:02:36;;;;;;;9.00;6.60;;;;;;;22.28;29.57;101058.47;103171;1299;61405;-81
2023/12/10 09:05:02;;;;;;;8.30;6.30;;;;;;;22.28;29.71;101058.45;103089;1300;61524;-81
2023/12/10 09:07:29;;;;;;;9.90;7.30;;;;;;;22.28;29.71;101055.60;103208;1297;62137;-81
2023/12/10 09:09:59;;;;;;;8.70;6.90;;;;;;;22.28;29.68;101047.71;103047;1296;62042;-81
2023/12/10 09:12:27;;;;;;;8.80;6.80;;;;;;;22.28;29.65;101042.34;103268;1295;61233;-81
2023/12/10 09:14:53;;;;;;;8.80;6.60;;;;;;;22.27;29.62;101042.74;103149;1296;72337;-81
2023/12/10 09:17:20;;;;;;;8.90;6.50;;;;;;;22.27;29.53;101041.84;102991;1299;61414;-82
2023/12/10 09:19:45;;;;;;;9.60;7.30;;;;;;;22.27;29.56;101036.62;103170;1296;61508;-81
2023/12/10 09:22:11;;;;;;;9.30;6.90;;;;;;;22.27;29.62;101028.23;103177;1296;61524;-81
2023/12/10 09:24:37;;;;;;;9.00;7.00;;;;;;;22.27;29.65;101031.96;103095;1299;61475;-81
2023/12/10 09:27:02;;;;;;;9.00;6.50;;;;;;;22.27;29.62;101032.00;103068;1296;61456;-81
2023/12/10 09:29:35;;;;;;;9.00;7.40;;;;;;;22.27;29.58;101030.38;103480;1293;61409;-81
2023/12/10 09:32:02;;;;;;;9.20;6.90;;;;;;;22.27;29.55;101027.84;103179;1292;61371;-81
2023/12/10 09:34:27;;;;;;;7.80;6.20;;;;;;;22.27;29.71;101019.60;103399;1293;61303;-81
2023/12/10 09:36:53;;;;;;;9.30;7.00;;;;;;;22.27;29.63;101011.02;103475;1293;61405;-82
2023/12/10 09:39:19;;;;;;;9.20;7.00;;;;;;;22.26;29.58;101010.01;103623;1296;61505;-81
2023/12/10 09:41:45;;;;;;;9.20;7.00;;;;;;;22.25;29.63;101008.80;103419;1294;61432;-81
2023/12/10 09:44:10;;;;;;;9.00;6.70;;;;;;;22.24;29.65;101008.34;103499;1293;61357;-81
2023/12/10 09:46:36;;;;;;;8.50;6.80;;;;;;;22.23;29.66;101006.80;103482;1296;61405;-81
2023/12/10 09:49:02;;;;;;;9.10;6.90;;;;;;;22.21;29.68;100999.25;103533;1294;72504;-81
2023/12/10 09:51:27;;;;;;;8.90;6.80;;;;;;;22.19;29.62;100990.98;103118;1292;61479;-81
2023/12/10 09:53:53;;;;;;;8.50;6.60;;;;;;;22.17;29.68;100990.74;103149;1299;61385;-81
2023/12/10 09:56:19;;;;;;;8.30;6.30;;;;;;;22.15;29.74;100993.95;103384;1294;61630;-83
2023/12/10 09:58:45;;;;;;;10.70;7.40;;;;;;;22.13;29.62;100989.11;103302;1294;61472;-81
2023/12/10 10:01:10;;;;;;;9.10;6.80;;;;;;;22.11;29.85;100989.41;103369;1294;61319;-81
2023/12/10 10:03:41;;;;;;;9.60;7.40;;;;;;;22.09;29.76;100990.97;103452;1292;74377;-81
2023/12/10 10:06:12;;;;;;;10.60;7.10;;;;;;;22.07;29.65;100991.86;103398;1294;61402;-81
2023/12/10 10:08:38;;;;;;;9.90;7.10;;;;;;;22.05;29.74;100994.52;103600;1293;61347;-81
2023/12/10 10:11:04;;;;;;;8.10;6.80;;;;;;;22.03;29.72;100998.96;103467;1293;61799;-80
2023/12/10 10:13:30;;;;;;;9.70;7.00;;;;;;;22.01;29.81;100998.57;103526;1297;61382;-81
2023/12/10 10:15:57;;;;;;;9.20;7.10;;;;;;;22.00;29.86;100999.76;103399;1292;61351;-81
2023/12/10 10:18:23;;;;;;;9.10;6.60;;;;;;;21.97;29.85;100999.02;103236;1294;62222;-81
2023/12/10 10:20:48;;;;;;;8.40;6.80;;;;;;;21.95;29.88;101001.48;103455;1296;61387;-81
2023/12/10 10:23:14;;;;;;;9.40;6.40;;;;;;;21.94;30.00;101006.60;103231;1294;61415;-81
2023/12/10 10:25:40;;;;;;;8.40;6.50;;;;;;;21.91;29.81;101008.00;103244;1294;74424;-81
2023/12/10 10:28:13;;;;;;;8.90;6.60;;;;;;;21.90;29.85;101014.56;103541;1293;61425;-81
2023/12/10 10:30:39;;;;;;;9.40;7.20;;;;;;;21.88;29.74;101009.50;103478;1294;61361;-81
2023/12/10 10:33:05;;;;;;;9.70;7.30;;;;;;;21.87;29.94;101003.54;103090;1292;61441;-82
2023/12/10 10:35:31;;;;;;;8.00;6.70;;;;;;;21.85;29.77;101007.61;103369;1294;61528;-81
2023/12/10 10:37:57;;;;;;;9.50;6.90;;;;;;;21.83;29.87;101012.90;103491;1294;61393;-81
2023/12/10 10:40:22;;;;;;;9.00;6.70;;;;;;;21.82;29.98;101017.81;103423;1294;61326;-81
2023/12/10 10:42:48;;;;;;;9.20;6.90;;;;;;;21.81;29.90;101017.72;103467;1294;61391;-81
2023/12/10 10:45:13;;;;;;;8.80;6.70;;;;;;;21.80;29.92;101020.48;103511;1292;72440;-81
2023/12/10 10:47:39;;;;;;;9.00;6.90;;;;;;;21.79;29.84;101021.29;103194;1294;61885;-81
2023/12/10 10:50:06;;;;;;;8.80;6.70;;;;;;;21.78;29.88;101019.57;103200;1294;61455;-81
2023/12/10 10:52:33;;;;;;;9.10;7.20;;;;;;;21.76;29.86;101012.66;103219;1294;61338;-82
2023/12/10 10:55:00;;;;;;;8.50;7.10;;;;;;;21.74;29.94;101007.95;103190;1294;61353;-81
2023/12/10 10:57:34;;;;;;;9.10;6.90;;;;;;;21.74;30.08;101001.56;103051;1302;61479;-81
2023/12/10 10:59:59;;;;;;;8.60;7.00;;;;;;;21.73;29.94;100996.98;103230;1294;61767;-81
2023/12/10 11:02:25;;;;;;;10.00;7.30;;;;;;;21.72;29.99;100990.95;103068;1296;61382;-81
2023/12/10 11:04:51;;;;;;;9.30;7.00;;;;;;;21.71;29.92;100986.00;103023;1299;61530;-82
2023/12/10 11:07:25;;;;;;;9.30;7.20;;;;;;;21.70;29.80;100981.96;103196;1294;62042;-82
2023/12/10 11:09:58;;;;;;;10.60;7.00;;;;;;;21.69;29.95;100976.11;103131;1294;61336;-82
2023/12/10 11:12:44;;;;;;;9.70;7.40;;;;;;;21.69;29.94;100976.86;103212;1294;61397;-82